createdAt,value
2023-12-14T05:07:25.206Z,12.32
2023-12-14T05:10:27.965Z,11.35
2023-12-14T05:13:31.091Z,11.45
2023-12-14T05:16:33.591Z,10.48
2023-12-14T05:19:37.430Z,11.65
2023-12-14T05:22:40.519Z,11.20
2023-12-14T05:25:42.941Z,10.52
2023-12-14T05:28:46.141Z,12.02
2023-12-14T05:31:48.570Z,11.12
2023-12-14T05:34:51.543Z,10.43
2023-12-14T05:37:54.063Z,10.68
2023-12-14T05:40:56.539Z,12.07
2023-12-14T05:43:59.958Z,11.18
2023-12-14T05:47:02.481Z,11.20
2023-12-14T05:50:05.730Z,11.85
2023-12-14T05:53:08.211Z,11.60
2023-12-14T05:56:10.531Z,11.35
2023-12-14T05:59:13.120Z,11.75
2023-12-14T06:02:15.508Z,10.75
2023-12-14T06:05:18.486Z,11.27
2023-12-14T06:08:20.811Z,11.27
2023-12-14T06:11:24.590Z,12.10
2023-12-14T06:14:27.853Z,11.07
2023-12-14T06:17:31.404Z,11.07
2023-12-14T06:20:33.971Z,12.50
2023-12-14T06:23:37.431Z,11.57
2023-12-14T06:26:46.264Z,12.25
2023-12-14T06:29:48.927Z,11.30
2023-12-14T06:32:51.126Z,11.95
2023-12-14T06:35:53.562Z,11.82
2023-12-14T06:38:56.522Z,12.52
2023-12-14T06:42:01.087Z,11.85
2023-12-14T06:45:04.589Z,12.32
2023-12-14T06:48:07.180Z,12.18
2023-12-14T06:51:09.622Z,12.55
2023-12-14T06:54:12.301Z,11.73
2023-12-14T06:57:14.668Z,13.07
2023-12-14T07:00:17.622Z,12.23
2023-12-14T07:03:20.160Z,14.50
2023-12-14T07:06:23.641Z,14.23
2023-12-14T07:09:26.578Z,14.15
2023-12-14T07:12:31.302Z,14.43
2023-12-14T07:15:34.008Z,15.45
2023-12-14T07:18:38.657Z,15.27
2023-12-14T07:21:40.932Z,14.40
2023-12-14T07:24:52.180Z,15.15
2023-12-14T07:27:55.325Z,14.60
2023-12-14T07:30:58.289Z,15.27
2023-12-14T07:34:00.595Z,16.75
2023-12-14T07:37:03.073Z,15.75
2023-12-14T07:40:05.945Z,17.02
2023-12-14T07:43:11.067Z,15.98
2023-12-14T07:46:13.266Z,16.48
2023-12-14T07:49:16.158Z,16.83
2023-12-14T07:52:18.658Z,17.25
2023-12-14T07:55:21.897Z,16.62
2023-12-14T07:58:24.215Z,17.83
2023-12-14T08:01:26.884Z,17.00
2023-12-14T08:04:29.358Z,16.50
2023-12-14T08:07:32.757Z,17.00
2023-12-14T08:10:35.471Z,16.70
2023-12-14T08:13:38.973Z,16.08
2023-12-14T08:16:44.652Z,16.25
2023-12-14T08:19:47.052Z,15.75
2023-12-14T08:22:49.874Z,17.05
2023-12-14T08:25:52.161Z,15.98
2023-12-14T08:28:54.687Z,16.30
2023-12-14T08:32:00.481Z,16.60
2023-12-14T08:35:03.738Z,16.25
2023-12-14T08:38:06.141Z,16.67
2023-12-14T08:41:09.012Z,15.77
2023-12-14T08:44:11.564Z,18.15
2023-12-14T08:47:14.081Z,16.40
2023-12-14T08:50:16.918Z,15.20
2023-12-14T08:53:19.415Z,15.73
2023-12-14T08:56:22.163Z,14.93
2023-12-14T08:59:24.802Z,15.57
2023-12-14T09:02:29.103Z,15.70
2023-12-14T09:05:31.873Z,14.73
2023-12-14T09:08:34.255Z,16.23
2023-12-14T09:11:37.514Z,16.37
2023-12-14T09:14:39.707Z,15.48
2023-12-14T09:17:43.567Z,15.85
2023-12-14T09:20:46.106Z,15.00
2023-12-14T09:23:48.804Z,15.68
2023-12-14T09:26:50.940Z,11.43
2023-12-14T09:29:53.349Z,14.23
2023-12-14T09:32:55.778Z,13.85
2023-12-14T09:35:58.291Z,14.73
2023-12-14T09:39:00.575Z,15.30
2023-12-14T09:42:08.313Z,13.75
2023-12-14T09:45:10.725Z,12.82
2023-12-14T09:48:14.280Z,13.82
2023-12-14T09:51:17.305Z,14.68
2023-12-14T09:54:19.697Z,15.05
2023-12-14T09:57:26.713Z,14.40
2023-12-14T10:00:37.332Z,12.25
2023-12-14T10:03:39.907Z,14.75
2023-12-14T10:06:44.116Z,15.02
2023-12-14T10:09:46.922Z,13.90
2023-12-14T10:12:56.693Z,13.55
2023-12-14T10:16:00.125Z,13.00
2023-12-14T10:19:02.889Z,12.15
2023-12-14T10:22:09.564Z,11.18
2023-12-14T10:25:12.168Z,11.27
2023-12-14T10:28:16.213Z,12.05
2023-12-14T10:31:23.768Z,12.55
2023-12-14T10:34:26.538Z,13.18
2023-12-14T10:37:30.739Z,12.90
2023-12-14T10:40:35.416Z,12.95
2023-12-14T10:43:48.438Z,12.93
2023-12-14T10:46:57.251Z,12.85
2023-12-14T10:50:02.851Z,13.40
2023-12-14T10:53:06.641Z,13.62
2023-12-14T10:56:12.004Z,13.93
2023-12-14T10:59:19.331Z,12.85
2023-12-14T11:02:21.469Z,13.70
2023-12-14T11:05:31.620Z,13.57
2023-12-14T11:08:35.788Z,12.50
2023-12-14T11:12:10.137Z,11.82
2023-12-14T11:15:12.331Z,10.38
2023-12-14T11:18:14.824Z,9.93
2023-12-14T11:21:23.570Z,10.10
2023-12-14T11:24:27.072Z,10.52
2023-12-14T11:27:30.727Z,10.40
2023-12-14T11:30:44.124Z,11.30
2023-12-14T11:33:58.729Z,10.43
2023-12-14T11:37:01.679Z,11.27
2023-12-14T11:40:06.309Z,11.38
2023-12-14T11:43:09.601Z,11.38
2023-12-14T11:46:13.023Z,10.55
2023-12-14T11:49:16.764Z,10.95
2023-12-14T11:52:19.478Z,11.38
2023-12-14T11:55:22.914Z,11.82
2023-12-14T11:58:25.864Z,11.93
2023-12-14T12:01:29.531Z,11.70
2023-12-14T12:04:32.219Z,11.85
2023-12-14T12:07:34.856Z,11.20
2023-12-14T12:10:38.831Z,12.25
2023-12-14T12:13:41.310Z,11.60
2023-12-14T12:16:43.863Z,12.20
2023-12-14T12:19:46.404Z,11.70
2023-12-14T12:22:48.931Z,11.60
2023-12-14T12:25:51.159Z,11.70
2023-12-14T12:28:53.762Z,11.90
2023-12-14T12:31:56.037Z,11.70
2023-12-14T12:34:58.601Z,11.70
2023-12-14T12:38:00.972Z,10.32
2023-12-14T12:41:03.655Z,11.15
2023-12-14T12:44:07.178Z,12.30
2023-12-14T12:47:11.551Z,12.10
2023-12-14T12:50:14.799Z,13.02
2023-12-14T12:53:17.586Z,13.35
2023-12-14T12:56:20.593Z,11.95
2023-12-14T12:59:23.457Z,12.35
2023-12-14T13:02:25.681Z,12.57
2023-12-14T13:05:28.453Z,12.40
2023-12-14T13:08:30.666Z,11.70
2023-12-14T13:11:33.703Z,12.15
2023-12-14T13:14:35.978Z,13.55
2023-12-14T13:17:39.156Z,12.52
2023-12-14T13:20:41.571Z,12.02
2023-12-14T13:23:45.110Z,11.07
2023-12-14T13:26:47.983Z,12.68
2023-12-14T13:29:50.483Z,11.63
2023-12-14T13:32:54.839Z,12.18
2023-12-14T13:35:57.442Z,11.02
2023-12-14T13:39:00.328Z,11.30
2023-12-14T13:42:03.150Z,10.70
2023-12-14T13:45:06.479Z,10.65
2023-12-14T13:48:09.959Z,11.45
2023-12-14T13:51:12.191Z,10.07
2023-12-14T13:54:14.599Z,10.93
2023-12-14T13:57:16.825Z,10.85
2023-12-14T14:00:20.324Z,11.88
2023-12-14T14:03:24.565Z,11.00
2023-12-14T14:06:26.991Z,11.30
2023-12-14T14:09:29.613Z,11.00
2023-12-14T14:12:31.798Z,11.93
2023-12-14T14:15:34.283Z,11.48
2023-12-14T14:18:36.733Z,10.88
2023-12-14T14:21:39.870Z,12.00
2023-12-14T14:24:42.069Z,11.93
2023-12-14T14:27:47.868Z,11.48
2023-12-14T14:30:50.222Z,11.93
2023-12-14T14:33:52.745Z,11.57
2023-12-14T14:36:54.991Z,11.15
2023-12-14T14:39:57.494Z,10.73
2023-12-14T14:42:59.837Z,10.65
2023-12-14T14:46:02.566Z,11.02
2023-12-14T14:49:04.868Z,10.98
2023-12-14T14:52:07.984Z,10.82
2023-12-14T14:55:10.383Z,10.40
2023-12-14T14:58:12.928Z,11.00
2023-12-14T15:01:15.240Z,10.52
2023-12-14T15:04:18.471Z,10.45
2023-12-14T15:07:20.679Z,10.60
2023-12-14T15:10:23.138Z,10.07
2023-12-14T15:13:25.717Z,10.75
2023-12-14T15:16:28.257Z,11.65
2023-12-14T15:19:30.402Z,11.63
2023-12-14T15:22:36.812Z,11.85
2023-12-14T15:25:39.179Z,12.07
2023-12-14T15:28:41.908Z,12.68
2023-12-14T15:31:44.236Z,11.40
2023-12-14T15:34:46.814Z,13.02
2023-12-14T15:37:49.071Z,12.32
2023-12-14T15:40:51.589Z,14.18
2023-12-14T15:43:53.866Z,13.52
2023-12-14T15:46:56.390Z,13.77
2023-12-14T15:49:58.591Z,13.40
2023-12-14T15:53:01.105Z,13.43
2023-12-14T15:56:03.576Z,13.25
2023-12-14T15:59:08.221Z,13.18
2023-12-14T16:02:10.568Z,14.55
2023-12-14T16:05:13.186Z,14.32
2023-12-14T16:08:15.518Z,14.50
2023-12-14T16:11:17.981Z,13.85
2023-12-14T16:14:20.267Z,15.57
2023-12-14T16:17:22.736Z,14.07
2023-12-14T16:20:26.855Z,13.73
2023-12-14T16:23:29.396Z,14.43
2023-12-14T16:26:32.391Z,14.65
2023-12-14T16:29:37.956Z,14.55
2023-12-14T16:32:40.512Z,14.80
2023-12-14T16:35:43.562Z,14.65
